METAR Data
IDs: Format: Raw Decoded Include TAF

Data at: 0514 UTC 24 Sep 2018

KFVX 240455Z AUTO 01005KT 4SM BR OVC003 16/16 A3022 RMK AO2 T01620160 401710145
KFVX 240435Z AUTO 01005KT 4SM BR OVC003 16/16 A3022 RMK AO2 T01620160
KFVX 240415Z AUTO 02006KT 4SM BR OVC003 16/16 A3022 RMK AO2 T01620160
KFVX 240355Z AUTO 01003KT 5SM BR OVC003 16/16 A3022 RMK AO2 T01620160
KFVX 240335Z AUTO 01004KT 4SM BR OVC003 16/16 A3022 RMK AO2 T01620160
KFVX 240315Z AUTO 01006KT 4SM BR OVC003 16/16 A3021 RMK AO2 T01620160
KFVX 240255Z AUTO 01005KT 3SM BR OVC003 16/16 A3021 RMK AO2 T01620160
KFVX 240235Z AUTO 01004KT 3SM BR OVC003 17/16 A3021 RMK AO2 T01650162
KFVX 240215Z AUTO 02006KT 3SM BR OVC003 17/16 A3021 RMK AO2 T01650162
KFVX 240155Z AUTO 02005KT 3SM BR OVC003 17/16 A3021 RMK AO2 T01650163
KFVX 240135Z AUTO 02004KT 3SM BR OVC003 17/17 A3020 RMK AO2 T01660165
KFVX 240115Z AUTO 02005KT 4SM BR OVC003 17/17 A3019 RMK AO2 T01670165
KFVX 240055Z AUTO 03005KT 3SM BR OVC003 17/17 A3019 RMK AO2 T01670165
KFVX 240035Z AUTO 02004KT 3SM BR OVC003 17/17 A3019 RMK AO2 T01680166
KFVX 240015Z AUTO 02004KT 2 1/2SM BR OVC003 17/17 A3018 RMK AO2 T01680166
KFVX 232355Z AUTO 02004KT 3SM BR OVC005 17/17 A3017 RMK AO2 T01680166 10171 20161
KFVX 232335Z AUTO 02003KT 3SM BR OVC005 17/17 A3017 RMK AO2 T01680166
KFVX 232315Z AUTO 02005KT 3SM BR OVC005 17/17 A3016 RMK AO2 T01680166
KFVX 232255Z AUTO 02004KT 2 1/2SM BR OVC005 17/17 A3016 RMK AO2 T01690166
KFVX 232235Z AUTO 01004KT 2SM BR OVC005 17/17 A3016 RMK AO2 T01700166
KFVX 232215Z AUTO 02003KT 3SM BR BKN005 OVC008 17/17 A3016 RMK AO2 T01700166
KFVX 232155Z AUTO 02004KT 2 1/2SM BR BKN005 OVC009 17/17 A3016 RMK AO2 VIS 2V3 T01700165
KFVX 232135Z AUTO 02005KT 2 1/2SM BR OVC005 17/17 A3016 RMK AO2 T01700165
KFVX 232115Z AUTO 02004KT 3SM BR OVC005 17/17 A3016 RMK AO2 T01700165
KFVX 232055Z AUTO 02005KT 2 1/2SM BR OVC005 17/16 A3015 RMK AO2 T01700163
KFVX 232035Z AUTO 02004KT 4SM BR OVC007 17/16 A3015 RMK AO2 T01700161
KFVX 232015Z AUTO 01004KT 10SM OVC007 17/16 A3015 RMK AO2 T01710160
KFVX 231955Z AUTO 36004KT 10SM OVC007 17/16 A3015 RMK AO2 T01700159
KFVX 231935Z AUTO 02005KT 10SM OVC007 17/16 A3015 RMK AO2 T01700158
KFVX 231915Z AUTO 03004KT 10SM OVC007 17/16 A3016 RMK AO2 T01680157
KFVX 231855Z AUTO 36005KT 10SM OVC007 17/16 A3016 RMK AO2 T01660156
KFVX 231835Z AUTO 02007KT 10SM OVC007 17/16 A3016 RMK AO2 T01670156
KFVX 231815Z AUTO 02007KT 10SM OVC007 17/16 A3017 RMK AO2 T01660155
KFVX 231755Z AUTO 03005KT 7SM OVC007 16/15 A3017 RMK AO2 T01610151 10161 20145
KFVX 231735Z AUTO 01003KT 7SM OVC007 16/15 A3018 RMK AO2 T01600152
KFVX 231715Z AUTO 02006KT 10SM OVC007 16/15 A3018 RMK AO2 T01600150
KFVX 231655Z AUTO 01005KT 10SM OVC005 16/15 A3018 RMK AO2 T01610151
KFVX 231635Z AUTO 02006KT 10SM OVC005 16/15 A3018 RMK AO2 T01580150
KFVX 231615Z AUTO 02006KT 4SM BR OVC005 15/15 A3018 RMK AO2 T01540149
KFVX 231555Z AUTO 02005KT 5SM BR OVC007 16/15 A3018 RMK AO2 T01550150
KFVX 231535Z AUTO 02006KT 4SM BR OVC005 15/15 A3019 RMK AO2 T01520147
KFVX 231515Z AUTO 01005KT 3SM BR OVC005 16/15 A3019 RMK AO2 T01550149
KFVX 231455Z AUTO 03005KT 2 1/2SM BR OVC005 15/15 A3018 RMK AO2 T01530149
KFVX 231435Z AUTO 02006KT 2 1/2SM -RA OVC005 15/15 A3018 RMK AO2 T01510148
KFVX 231415Z AUTO 01006KT 4SM BR OVC007 15/14 A3019 RMK AO2 T01500144
KFVX 231355Z AUTO 02007KT 7SM OVC007 15/14 A3018 RMK AO2 T01480142
KFVX 231335Z AUTO 02006KT 10SM OVC007 15/14 A3017 RMK AO2 T01460140
KFVX 231315Z AUTO 02007KT 350V050 10SM OVC007 15/14 A3017 RMK AO2 T01450139
KFVX 231255Z AUTO 01006KT 10SM OVC007 15/14 A3016 RMK AO2 T01450140
KFVX 231235Z AUTO 01006KT 10SM OVC007 15/14 A3016 RMK AO2 T01450140
KFVX 231215Z AUTO 01003KT 10SM RA OVC007 15/14 A3016 RMK AO2 T01460141
KFVX 231155Z AUTO 02005KT 10SM OVC007 15/14 A3015 RMK AO2 60022 70042 T01460141 10170 20146
KFVX 231135Z AUTO 01005KT 10SM OVC007 15/14 A3015 RMK AO2 T01470142
KFVX 231115Z AUTO 02008KT 10SM OVC007 15/15 A3015 RMK AO2 T01480145
KFVX 231055Z AUTO 01005KT 10SM OVC007 15/15 A3015 RMK AO2 P0004 T01480145
KFVX 231035Z AUTO 02004KT 5SM RA OVC005 15/15 A3015 RMK AO2 P0004 T01500145
KFVX 231015Z AUTO 01006KT 10SM -DZ OVC005 15/15 A3014 RMK AO2 T01500146
KFVX 230955Z AUTO 01005KT 10SM -RA OVC005 15/15 A3014 RMK AO2 T01510147
KFVX 230935Z AUTO 03006KT 10SM OVC005 15/15 A3013 RMK AO2 T01520148
KFVX 230915Z AUTO 02006KT 10SM OVC005 15/15 A3013 RMK AO2 T01530150
KFVX 230850Z AUTO 02007KT 10SM OVC007 16/15 A3013 RMK AO2 60018 T01550150
KFVX 230835Z AUTO 01007KT 10SM OVC007 16/15 A3012 RMK AO2 T01550150
KFVX 230815Z AUTO 02007KT 10SM OVC007 16/15 A3013 RMK AO2 T01570153
KFVX 230755Z AUTO 01003KT 10SM OVC005 16/16 A3014 RMK AO2 T01600156
KFVX 230735Z AUTO 01003KT 10SM BKN005 OVC010 16/16 A3014 RMK AO2 T01610157
KFVX 230715Z AUTO 02007KT 10SM -RA BKN005 OVC008 16/16 A3014 RMK AO2 T01630160
KFVX 230655Z AUTO 02006KT 5SM RA OVC005 17/16 A3014 RMK AO2 P0018 T01650161
KFVX 230635Z AUTO 00000KT 10SM -RA OVC005 17/17 A3014 RMK AO2 T01680165
KFVX 230615Z AUTO 02008KT 10SM OVC005 17/17 A3014 RMK AO2 T01700165
KFVX 230555Z AUTO 03008KT 10SM OVC005 17/17 A3014 RMK AO2 P0001 60020 T01700166 10208 20170
KFVX 230535Z AUTO 02007KT 10SM -DZ OVC005 17/17 A3014 RMK AO2 P0001 T01710167
KFVX 230515Z AUTO 01007KT 10SM -RA OVC005 17/17 A3014 RMK AO2 P0001 T01700167
KFVX 230455Z AUTO 03009KT 10SM -RA OVC005 17/17 A3014 RMK AO2 P0011 T01700166 402900170
KFVX 230435Z AUTO 03008KT 7SM RA BKN005 BKN012 OVC027 17/17 A3015 RMK AO2 P0009 T01700167
KFVX 230415Z AUTO 03007KT 10SM RA SCT005 SCT012 BKN110 17/17 A3014 RMK AO2 P0003 T01700166
KFVX 230355Z AUTO 03008KT 10SM RA SCT011 SCT031 BKN120 17/17 A3014 RMK AO2 LTG DSNT SW P0007 T01700166
KFVX 230335Z AUTO 02006KT 10SM VCTSRA SCT009 BKN031 OVC040 17/17 A3017 RMK AO2 LTG DSNT SW AND W P0003 T01710165
KFVX 230315Z AUTO 01004KT 10SM -VCTSRA BKN020 OVC031 17/17 A3017 RMK AO2 LTG DSNT W T01720165
KFVX 230255Z AUTO 02005KT 10SM -RA OVC020 17/16 A3016 RMK AO2 LTG DSNT SW AND W T01740162
KFVX 230235Z AUTO 02009G15KT 10SM -RA OVC022 18/16 A3015 RMK AO2 LTG DSNT SW T01760160
KFVX 230215Z AUTO 02008KT 10SM BKN024 OVC036 18/16 A3016 RMK AO2 LTG DSNT W T01810156
KFVX 230155Z AUTO 02007KT 10SM -RA SCT024 OVC036 18/16 A3014 RMK AO2 LTG DSNT SW AND W T01820157
KFVX 230135Z AUTO 03006KT 10SM VCTS SCT026 OVC036 19/15 A3014 RMK AO2 LTG DSNT SW AND W T01870154
KFVX 230115Z AUTO 02010G15KT 10SM BKN024 OVC036 19/15 A3014 RMK AO2 LTG DSNT W T01910154
KFVX 230055Z AUTO 02009KT 10SM SCT024 OVC032 20/16 A3013 RMK AO2 T01960158
KFVX 230035Z AUTO 03010KT 10SM OVC032 20/15 A3012 RMK AO2 LTG DSNT W T02020150
KFVX 230015Z AUTO 03008G16KT 10SM OVC030 21/15 A3012 RMK AO2 LTG DSNT W T02050149
KFVX 222355Z AUTO 03014G18KT 10SM OVC032 21/15 A3011 RMK AO2 LTG DSNT W T02080149 10290 20208
KFVX 222335Z AUTO 02010G15KT 10SM OVC030 21/16 A3011 RMK AO2 LTG DSNT W T02130161
KFVX 222315Z AUTO 03010KT 10SM OVC032 22/17 A3010 RMK AO2 T02210174
KFVX 222255Z AUTO 03010G16KT 10SM OVC032 23/18 A3010 RMK AO2 LTG DSNT W T02280181
KFVX 222235Z AUTO 03010KT 10SM OVC030 24/19 A3009 RMK AO2 T02360190
KFVX 222215Z AUTO 03009KT 10SM OVC032 24/20 A3008 RMK AO2 T02410196
KFVX 222155Z AUTO 02007KT 10SM SCT032 OVC049 25/21 A3008 RMK AO2 T02500206
KFVX 222135Z AUTO 04007KT 10SM SCT037 OVC049 26/21 A3007 RMK AO2 T02600210
KFVX 222115Z AUTO 05007KT 10SM SCT037 OVC049 26/21 A3007 RMK AO2 T02600208
KFVX 222055Z AUTO 06006KT 10SM OVC047 27/21 A3007 RMK AO2 T02680210
KFVX 222035Z AUTO 04006KT 10SM OVC045 27/21 A3007 RMK AO2 T02730211
KFVX 222015Z AUTO 04008KT 10SM SCT029 BKN045 27/21 A3007 RMK AO2 T02740212
KFVX 221955Z AUTO 05009KT 10SM SCT029 SCT043 29/22 A3007 RMK AO2 T02890216
KFVX 221930Z AUTO 07009KT 10SM BKN043 29/22 A3007 RMK AO2 T02900216
KFVX 221915Z AUTO 05006KT 10SM BKN043 29/22 A3007 RMK AO2 T02900216
KFVX 221855Z AUTO 08007KT 10SM BKN041 28/21 A3009 RMK AO2 T02840213
KFVX 221835Z AUTO 05008KT 10SM OVC039 28/22 A3009 RMK AO2 T02750215
KFVX 221815Z AUTO 05006KT 10SM OVC039 27/21 A3009 RMK AO2 T02710213
KFVX 221755Z AUTO 03009KT 10SM SCT025 SCT031 OVC039 27/22 A3010 RMK AO2 T02720215 10284 20205
KFVX 221735Z AUTO 03006KT 10SM SCT027 OVC035 27/22 A3010 RMK AO2 T02710215
KFVX 221715Z AUTO 02006KT 10SM OVC032 27/21 A3011 RMK AO2 T02660210